Ana Sayfa
METAR-TAF:

METAR-TAF

Havaalanları :

Stockholm-Arlanda Havalimanı

Stokholm-Arlanda, İsveç

Enlem: 59-39N, Boylam: 017-57E, yükseklik: 38 m

Güncel hava durumu gözlemi

Rapor saat 04:50 UTC de 22 dakika önce yapıldı.
Rüzgar güney/güneydoğudan 10 kt
Sıcaklık 13°C
Nem 72%
Basınç 1020 hPa
Görüş mesafesi 10 km veya daha fazla
1500 m altında bulut yok ve kümülonimbus yok

METAR: ESSA 020450Z 15010KT CAVOK 13/08 Q1020 NOSIG

Saat: 07:12 (05:12 UTC)

Tahmin

Rapor saat 23:30 UTC de 5 saat ve 42 dakika önce yapıldı.
Ayın 02'si saat 00 UTC'den ayın 02'si saat 24 UTC'ye kadar geçerli Tahmin
Rüzgar doğudan 4 kt
Görüş mesafesi 10 km veya daha fazla
1500 m altında bulut yok ve kümülonimbus yok
Dönüşüyor
ayın 02'si saat 08 UTC'den ayın 02'si saat 10 UTC'ye kadar
Rüzgar güney/güneydoğudan 10 kt

TAF: ESSA 012330Z 0200/0224 10004KT CAVOK BECMG 0208/0210 16010KT

4.000'den fazla havaalanı için hava durumu gözlemleri ve tahminleri (METAR ve TAF raporları).

Kullanılabilir istasyonlar harita üzerinde sarı ve kırmızı noktalarla gösterilir.

İstasyonun adını görmek için fareyi noktanın üzerinde gezdirin.

Sonrasında hava gözlem ve tahminlerini görmek için tıklayın.

Haritayı değiştirmek için: yaklaştırmak için siyah artı işaretli yeşil düğmeye ve uzaklaştırmak için de eksi işaretli düğmeye hızla tıklayın; bitişik haritalar için yeşil okları kullanın.


METAR-TAF: